Time;durP1;ratioP1;P1;durP2;ratioP2;P2;SDS_P1;SDS_P2;PMS_P1;PMS_P2;Temp;Humidity;BMP_temperature;BMP_pressure;BME280_temperature;BME280_humidity;BME280_pressure;Samples;Min_cycle;Max_cycle;Signal;HPM_P1;HPM_P2
2024/02/19 00:01:33;;;;;;;11.40;6.70;;;;;;;-1.06;66.37;100113.20;106176;1250;96973;-81
2024/02/19 00:04:03;;;;;;;13.60;6.90;;;;;;;-1.06;66.43;100115.45;106381;1250;107720;-82
2024/02/19 00:06:31;;;;;;;11.80;6.40;;;;;;;-1.07;66.21;100116.34;106020;1247;97178;-77
2024/02/19 00:08:59;;;;;;;17.30;7.60;;;;;;;-1.10;66.28;100113.42;105788;1253;96634;-82
2024/02/19 00:11:27;;;;;;;18.10;8.20;;;;;;;-1.10;66.47;100107.84;106216;1250;111905;-82
2024/02/19 00:13:56;;;;;;;16.60;7.30;;;;;;;-1.08;66.36;100107.99;105831;1247;97394;-82
2024/02/19 00:16:24;;;;;;;14.00;7.50;;;;;;;-1.12;66.45;100106.29;106220;1251;107615;-82
2024/02/19 00:18:52;;;;;;;17.20;7.70;;;;;;;-1.15;66.55;100106.65;105830;1253;96599;-82
2024/02/19 00:21:20;;;;;;;17.10;7.70;;;;;;;-1.21;66.20;100104.95;106086;1250;97908;-75
2024/02/19 00:23:48;;;;;;;15.20;7.60;;;;;;;-1.25;66.63;100103.25;106100;1247;109898;-82
2024/02/19 00:26:16;;;;;;;15.10;7.40;;;;;;;-1.26;66.64;100098.38;106139;1247;96651;-82
2024/02/19 00:28:44;;;;;;;13.60;7.50;;;;;;;-1.30;66.18;100091.27;106112;1261;107390;-77
2024/02/19 00:31:12;;;;;;;13.40;7.50;;;;;;;-1.35;66.74;100091.14;106331;1247;96520;-84
2024/02/19 00:33:40;;;;;;;12.20;6.80;;;;;;;-1.37;66.58;100090.98;106132;1248;97486;-81
2024/02/19 00:36:08;;;;;;;14.50;7.20;;;;;;;-1.41;66.60;100091.88;106057;1249;110005;-83
2024/02/19 00:38:36;;;;;;;15.40;7.70;;;;;;;-1.45;66.49;100088.45;106207;1253;96696;-82
2024/02/19 00:41:04;;;;;;;16.60;7.90;;;;;;;-1.52;66.59;100085.70;105944;1250;107155;-82
2024/02/19 00:43:32;;;;;;;14.40;7.50;;;;;;;-1.56;66.23;100088.50;105922;1253;96632;-82
2024/02/19 00:46:00;;;;;;;14.30;6.90;;;;;;;-1.59;66.48;100083.30;106344;1250;96656;-84
2024/02/19 00:48:28;;;;;;;14.30;7.20;;;;;;;-1.61;66.65;100084.52;106247;1249;109879;-81
2024/02/19 00:50:56;;;;;;;15.10;7.20;;;;;;;-1.63;66.61;100084.89;105865;1250;97950;-82
2024/02/19 00:53:24;;;;;;;14.50;6.90;;;;;;;-1.68;66.44;100080.92;105866;1250;107589;-82
2024/02/19 00:55:52;;;;;;;18.60;9.10;;;;;;;-1.73;66.57;100074.86;105983;1250;97044;-79
2024/02/19 00:58:20;;;;;;;17.30;7.80;;;;;;;-1.76;66.71;100067.58;106252;1251;96562;-76
2024/02/19 01:00:49;;;;;;;13.40;7.40;;;;;;;-1.77;66.67;100066.20;105969;1251;109867;-82
2024/02/19 01:03:17;;;;;;;14.50;7.70;;;;;;;-1.74;66.65;100062.70;106155;1251;96510;-82
2024/02/19 01:05:45;;;;;;;14.60;7.90;;;;;;;-1.75;66.55;100054.20;106340;1247;107614;-82
2024/02/19 01:08:13;;;;;;;12.10;7.20;;;;;;;-1.75;66.73;100054.36;106069;1250;96688;-81
2024/02/19 01:10:41;;;;;;;14.70;7.30;;;;;;;-1.75;66.72;100050.53;106085;1248;97989;-82
2024/02/19 01:13:09;;;;;;;17.30;8.00;;;;;;;-1.77;66.73;100042.03;106028;1247;109910;-82
2024/02/19 01:15:37;;;;;;;11.70;6.50;;;;;;;-1.77;66.72;100032.81;106134;1250;96597;-82
2024/02/19 01:18:04;;;;;;;12.70;6.80;;;;;;;-1.80;66.34;100028.84;106037;1250;107705;-82
2024/02/19 01:20:32;;;;;;;11.80;6.70;;;;;;;-1.81;66.75;100023.45;106082;1250;96587;-81
2024/02/19 01:23:00;;;;;;;13.50;8.00;;;;;;;-1.78;66.87;100027.43;105946;1250;97902;-79
2024/02/19 01:25:28;;;;;;;14.70;7.20;;;;;;;-1.80;66.41;100026.21;105870;1252;109690;-82
2024/02/19 01:27:56;;;;;;;15.00;7.50;;;;;;;-1.81;66.63;100020.30;106200;1250;96580;-80
2024/02/19 01:30:24;;;;;;;14.20;7.00;;;;;;;-1.81;66.96;100016.48;106195;1250;107676;-80
2024/02/19 01:32:52;;;;;;;12.60;6.40;;;;;;;-1.78;67.02;100010.04;107763;1250;96497;-79
2024/02/19 01:35:22;;;;;;;13.60;6.80;;;;;;;-1.76;66.88;100013.50;106456;1250;96654;-78
2024/02/19 01:37:50;;;;;;;14.70;7.00;;;;;;;-1.76;66.80;100011.77;106251;1252;109892;-81
2024/02/19 01:40:18;;;;;;;13.30;7.00;;;;;;;-1.74;66.75;100008.10;106381;1250;96506;-81
2024/02/19 01:42:46;;;;;;;12.90;6.20;;;;;;;-1.75;66.81;100002.54;106356;1250;107585;-82
2024/02/19 01:45:25;;;;;;;11.40;6.00;;;;;;;-1.70;66.97;99997.63;106232;1253;96603;-79
2024/02/19 01:47:56;;;;;;;12.00;6.10;;;;;;;-1.71;66.75;99995.22;106083;1247;96582;-83
2024/02/19 01:50:28;;;;;;;12.50;6.50;;;;;;;-1.72;67.00;99993.65;106822;1250;109902;-81
2024/02/19 01:52:58;;;;;;;13.30;6.70;;;;;;;-1.70;66.95;99987.39;106137;1250;97902;-82
2024/02/19 01:55:27;;;;;;;9.50;5.50;;;;;;;-1.72;66.89;99978.70;106363;1250;107168;-82
2024/02/19 01:57:57;;;;;;;10.90;6.00;;;;;;;-1.75;67.09;99971.41;106733;1250;96651;-81
2024/02/19 02:00:27;;;;;;;13.50;6.80;;;;;;;-1.75;66.95;99970.55;106098;1260;96904;-82
2024/02/19 02:02:55;;;;;;;14.30;7.30;;;;;;;-1.74;67.14;99961.50;106164;1250;110864;-81
2024/02/19 02:05:23;;;;;;;12.80;6.70;;;;;;;-1.76;66.92;99953.69;106393;1247;96555;-82
2024/02/19 02:07:52;;;;;;;9.80;6.00;;;;;;;-1.76;66.77;99943.77;106153;1250;108334;-82
2024/02/19 02:10:20;;;;;;;13.50;7.20;;;;;;;-1.80;67.14;99939.80;106312;1247;96616;-82
2024/02/19 02:12:48;;;;;;;11.90;7.20;;;;;;;-1.85;66.89;99937.77;106199;1250;96584;-82
2024/02/19 02:15:16;;;;;;;13.90;6.10;;;;;;;-1.86;67.06;99932.04;105959;1260;108047;-80
2024/02/19 02:17:44;;;;;;;13.50;6.30;;;;;;;-1.84;67.01;99931.14;106003;1257;97911;-82
2024/02/19 02:20:12;;;;;;;16.80;6.90;;;;;;;-1.85;66.80;99930.11;106265;1252;107630;-79
2024/02/19 02:22:42;;;;;;;17.10;7.80;;;;;;;-1.85;66.79;99929.42;106267;1250;96584;-81
2024/02/19 02:25:10;;;;;;;17.30;7.90;;;;;;;-1.89;66.86;99925.80;106472;1251;96594;-82
2024/02/19 02:27:38;;;;;;;13.60;6.90;;;;;;;-1.94;67.08;99927.91;106092;1249;109945;-80
2024/02/19 02:30:08;;;;;;;13.70;6.40;;;;;;;-1.97;66.90;99927.41;106297;1250;96574;-82
2024/02/19 02:32:36;;;;;;;12.00;6.80;;;;;;;-1.97;66.66;99921.16;106121;1246;107612;-83
2024/02/19 02:35:05;;;;;;;17.10;7.80;;;;;;;-1.99;66.98;99922.40;106057;1260;96684;-83
2024/02/19 02:37:33;;;;;;;13.70;7.00;;;;;;;-2.00;67.07;99921.69;106173;1250;97408;-83
2024/02/19 02:40:00;;;;;;;17.20;8.00;;;;;;;-2.00;67.07;99920.66;105823;1253;109914;-82
2024/02/19 02:42:28;;;;;;;14.50;6.50;;;;;;;-1.99;67.09;99917.88;106035;1250;98122;-81
2024/02/19 02:44:56;;;;;;;13.30;6.70;;;;;;;-2.01;66.69;99915.80;105907;1250;107727;-83
2024/02/19 02:47:24;;;;;;;13.70;6.70;;;;;;;-2.04;66.81;99906.44;106220;1250;96582;-82
2024/02/19 02:49:52;;;;;;;19.70;6.50;;;;;;;-2.08;66.92;99900.04;106286;1247;97935;-82
2024/02/19 02:52:20;;;;;;;13.70;6.60;;;;;;;-2.12;66.91;99894.68;106173;1250;109940;-78
2024/02/19 02:54:48;;;;;;;14.10;7.30;;;;;;;-2.18;66.77;99897.33;105770;1261;97178;-82
2024/02/19 02:57:16;;;;;;;14.70;6.40;;;;;;;-2.27;67.05;99894.45;106371;1248;107667;-82
2024/02/19 02:59:43;;;;;;;11.50;6.60;;;;;;;-2.28;66.92;99891.15;106012;1248;97398;-80
2024/02/19 03:02:11;;;;;;;13.10;6.50;;;;;;;-2.30;66.99;99889.77;106062;1250;96792;-82
2024/02/19 03:04:39;;;;;;;13.10;6.50;;;;;;;-2.34;67.12;99886.33;106248;1250;109917;-82
2024/02/19 03:07:07;;;;;;;10.80;6.30;;;;;;;-2.36;67.07;99885.64;106209;1250;96718;-79
2024/02/19 03:09:35;;;;;;;12.40;6.10;;;;;;;-2.35;67.12;99884.77;106175;1258;107693;-81
2024/02/19 03:12:03;;;;;;;14.10;7.10;;;;;;;-2.35;67.27;99880.78;106457;1250;96603;-81
2024/02/19 03:14:31;;;;;;;12.50;6.30;;;;;;;-2.35;67.32;99876.60;106264;1249;96590;-81
2024/02/19 03:16:59;;;;;;;13.70;6.80;;;;;;;-2.34;67.33;99871.72;106225;1250;110011;-82
2024/02/19 03:19:27;;;;;;;14.30;6.80;;;;;;;-2.33;67.47;99869.29;106014;1248;96522;-81
2024/02/19 03:21:55;;;;;;;12.50;7.10;;;;;;;-2.32;67.16;99859.03;106316;1247;106184;-81
2024/02/19 03:24:23;;;;;;;14.50;6.60;;;;;;;-2.32;67.47;99854.87;106189;1250;96638;-77
2024/02/19 03:26:51;;;;;;;16.40;6.20;;;;;;;-2.30;67.59;99853.29;106319;1248;96580;-82
2024/02/19 03:29:18;;;;;;;15.00;6.70;;;;;;;-2.26;67.49;99851.34;106214;1250;109685;-82
2024/02/19 03:31:47;;;;;;;11.90;6.40;;;;;;;-2.25;67.49;99846.65;106178;1250;96673;-82
2024/02/19 03:34:15;;;;;;;11.60;5.80;;;;;;;-2.19;67.66;99845.05;105918;1261;107616;-82
2024/02/19 03:36:49;;;;;;;11.00;6.60;;;;;;;-2.15;67.33;99840.49;106008;1250;97140;-82
2024/02/19 03:39:18;;;;;;;11.80;6.10;;;;;;;-2.13;67.64;99833.52;106180;1251;96632;-82
2024/02/19 03:41:46;;;;;;;8.50;5.40;;;;;;;-2.06;67.61;99829.81;106115;1247;110251;-82
2024/02/19 03:44:13;;;;;;;10.70;5.80;;;;;;;-2.02;67.50;99830.98;106305;1250;96578;-82
2024/02/19 03:46:41;;;;;;;11.00;5.90;;;;;;;-1.97;67.84;99826.41;106003;1250;108242;-83
2024/02/19 03:49:09;;;;;;;9.90;5.20;;;;;;;-1.90;67.61;99826.89;106385;1247;96520;-81
2024/02/19 03:51:37;;;;;;;11.40;5.00;;;;;;;-1.85;67.96;99824.75;106389;1250;97800;-78
2024/02/19 03:54:05;;;;;;;10.20;5.40;;;;;;;-1.83;67.80;99831.66;106104;1248;109853;-82
2024/02/19 03:56:34;;;;;;;9.30;5.20;;;;;;;-1.81;67.74;99833.05;106166;1250;96899;-81
2024/02/19 03:59:02;;;;;;;10.50;5.50;;;;;;;-1.77;67.80;99834.40;106120;1250;106609;-79
2024/02/19 04:01:30;;;;;;;10.80;5.80;;;;;;;-1.74;67.84;99836.11;106504;1250;96712;-80
2024/02/19 04:03:58;;;;;;;9.70;5.30;;;;;;;-1.69;67.96;99827.19;106385;1250;97562;-85
2024/02/19 04:06:26;;;;;;;7.60;5.20;;;;;;;-1.63;67.79;99828.88;106079;1251;109923;-82
2024/02/19 04:08:54;;;;;;;9.90;5.80;;;;;;;-1.60;68.20;99826.56;106252;1251;96526;-82
2024/02/19 04:11:22;;;;;;;8.20;5.60;;;;;;;-1.56;68.12;99823.92;106305;1251;108039;-82
2024/02/19 04:13:49;;;;;;;8.00;5.20;;;;;;;-1.51;68.18;99816.05;106138;1250;96578;-80
2024/02/19 04:16:17;;;;;;;9.60;5.10;;;;;;;-1.48;68.24;99817.40;105939;1260;96604;-81
2024/02/19 04:18:45;;;;;;;9.30;5.40;;;;;;;-1.45;68.17;99813.54;106422;1253;109489;-73
2024/02/19 04:21:13;;;;;;;9.30;5.40;;;;;;;-1.43;68.15;99811.44;106228;1250;96579;-75
2024/02/19 04:23:41;;;;;;;12.20;5.70;;;;;;;-1.42;68.15;99805.67;106305;1255;107698;-75
2024/02/19 04:26:09;;;;;;;8.00;4.80;;;;;;;-1.42;68.05;99799.05;106223;1248;96581;-75
2024/02/19 04:28:37;;;;;;;9.50;5.80;;;;;;;-1.40;68.13;99793.46;106362;1250;97937;-75
2024/02/19 04:31:05;;;;;;;9.40;5.20;;;;;;;-1.42;67.98;99791.23;106291;1248;109876;-76
2024/02/19 04:33:33;;;;;;;8.20;4.80;;;;;;;-1.39;68.25;99790.50;106048;1260;96656;-80
2024/02/19 04:36:01;;;;;;;9.30;5.60;;;;;;;-1.39;68.10;99792.94;106298;1248;106605;-83
2024/02/19 04:38:28;;;;;;;8.20;5.20;;;;;;;-1.39;68.16;99787.54;106220;1254;96953;-82
2024/02/19 04:40:56;;;;;;;9.80;5.10;;;;;;;-1.40;68.34;99783.38;106329;1253;96738;-81
2024/02/19 04:43:24;;;;;;;9.00;4.60;;;;;;;-1.41;67.84;99774.52;106255;1260;110019;-83
2024/02/19 04:45:52;;;;;;;8.70;4.70;;;;;;;-1.40;67.97;99773.81;106340;1250;97410;-76
2024/02/19 04:48:20;;;;;;;9.30;5.30;;;;;;;-1.39;68.10;99776.06;106005;1250;107591;-84
2024/02/19 04:50:48;;;;;;;12.10;6.40;;;;;;;-1.39;68.25;99774.14;106233;1251;96949;-82
2024/02/19 04:53:18;;;;;;;10.80;6.10;;;;;;;-1.36;68.17;99767.66;107866;1247;96509;-81
2024/02/19 04:55:46;;;;;;;9.00;5.80;;;;;;;-1.32;68.29;99767.81;106645;1251;108603;-81
2024/02/19 04:58:16;;;;;;;9.30;5.10;;;;;;;-1.29;68.36;99768.99;106424;1250;96700;-81
2024/02/19 05:00:45;;;;;;;8.70;5.40;;;;;;;-1.29;68.23;99766.18;106492;1250;107666;-79
2024/02/19 05:03:13;;;;;;;9.80;5.60;;;;;;;-1.27;68.21;99766.70;106383;1250;96613;-81
2024/02/19 05:05:45;;;;;;;11.40;5.70;;;;;;;-1.30;68.16;99762.91;106453;1253;96587;-80
2024/02/19 05:08:13;;;;;;;10.30;5.40;;;;;;;-1.30;68.36;99763.77;106425;1252;108226;-79
2024/02/19 05:10:41;;;;;;;8.80;5.00;;;;;;;-1.26;68.63;99757.81;106168;1250;97316;-87
2024/02/19 05:13:09;;;;;;;10.40;5.60;;;;;;;-1.25;68.31;99753.96;106521;1250;108345;-77
2024/02/19 05:15:37;;;;;;;13.20;5.80;;;;;;;-1.22;68.48;99745.90;106193;1250;96587;-80
2024/02/19 05:18:05;;;;;;;8.60;5.00;;;;;;;-1.19;68.48;99741.70;105607;1250;96587;-84
2024/02/19 05:20:35;;;;;;;8.10;5.00;;;;;;;-1.17;68.57;99741.67;105686;1260;109976;-83
2024/02/19 05:23:03;;;;;;;10.80;5.10;;;;;;;-1.14;68.51;99739.02;106013;1248;98001;-83
2024/02/19 05:25:31;;;;;;;10.80;5.50;;;;;;;-1.11;68.65;99738.27;109095;1248;107299;-78
2024/02/19 05:28:00;;;;;;;7.20;4.60;;;;;;;-1.08;68.56;99734.23;109216;1250;94596;-72
2024/02/19 05:30:28;;;;;;;10.50;5.70;;;;;;;-1.06;68.48;99731.77;109231;1246;94508;-72
2024/02/19 05:32:56;;;;;;;11.70;5.80;;;;;;;-1.02;68.52;99722.85;109267;1248;110448;-72
2024/02/19 05:35:25;;;;;;;10.60;5.60;;;;;;;-0.98;68.61;99719.29;109257;1247;95546;-72
2024/02/19 05:37:53;;;;;;;13.40;6.30;;;;;;;-0.94;68.58;99713.67;109234;1248;107336;-72
2024/02/19 05:40:21;;;;;;;9.70;5.80;;;;;;;-0.89;68.55;99711.85;106865;1251;97549;-73
2024/02/19 05:42:49;;;;;;;11.30;5.50;;;;;;;-0.84;68.62;99710.56;105909;1250;96593;-72
2024/02/19 05:45:17;;;;;;;12.10;6.00;;;;;;;-0.80;68.58;99707.70;106094;1250;109570;-71
2024/02/19 05:47:46;;;;;;;14.70;6.30;;;;;;;-0.77;68.65;99706.93;105728;1253;96682;-71
2024/02/19 05:50:15;;;;;;;17.20;6.50;;;;;;;-0.75;68.80;99698.73;106011;1259;107152;-72
2024/02/19 05:52:43;;;;;;;12.90;6.10;;;;;;;-0.72;68.58;99692.60;105872;1260;97512;-74
2024/02/19 05:55:10;;;;;;;13.80;6.40;;;;;;;-0.69;68.62;99692.71;106112;1260;96593;-72
2024/02/19 05:57:38;;;;;;;11.80;6.50;;;;;;;-0.65;68.75;99690.92;106223;1250;110035;-73
2024/02/19 06:00:13;;;;;;;10.10;6.20;;;;;;;-0.62;68.67;99691.38;106094;1261;97908;-72
2024/02/19 06:02:42;;;;;;;11.60;5.90;;;;;;;-0.55;69.06;99690.39;106133;1260;107750;-73
2024/02/19 06:05:11;;;;;;;13.10;6.80;;;;;;;-0.52;68.92;99682.50;106285;1250;96587;-76
2024/02/19 06:07:39;;;;;;;18.10;7.40;;;;;;;-0.53;68.87;99677.82;109225;1250;94264;-77
2024/02/19 06:10:07;;;;;;;17.40;8.30;;;;;;;-0.55;68.71;99672.80;106242;1251;109367;-78
2024/02/19 06:12:35;;;;;;;14.40;8.00;;;;;;;-0.58;68.89;99673.19;106480;1251;96638;-79
2024/02/19 06:15:03;;;;;;;13.20;6.80;;;;;;;-0.57;68.88;99668.48;106378;1248;107651;-78
2024/02/19 06:17:34;;;;;;;13.10;6.80;;;;;;;-0.54;69.15;99667.21;106421;1260;96577;-79
2024/02/19 06:20:02;;;;;;;13.20;6.20;;;;;;;-0.51;69.02;99670.98;106292;1246;97355;-79
2024/02/19 06:22:30;;;;;;;11.40;6.30;;;;;;;-0.47;69.00;99670.05;106068;1254;109914;-80
2024/02/19 06:24:58;;;;;;;9.50;5.90;;;;;;;-0.44;69.16;99671.56;106144;1251;97812;-78
2024/02/19 06:27:26;;;;;;;10.80;5.40;;;;;;;-0.38;69.46;99660.30;106191;1255;107562;-79
2024/02/19 06:29:54;;;;;;;13.10;6.00;;;;;;;-0.28;69.43;99658.89;106337;1251;97899;-79
2024/02/19 06:32:22;;;;;;;7.10;4.50;;;;;;;-0.20;69.49;99660.30;106376;1250;97948;-79
2024/02/19 06:34:50;;;;;;;11.10;5.50;;;;;;;-0.13;69.42;99652.69;106148;1248;109849;-79
2024/02/19 06:37:18;;;;;;;11.40;5.80;;;;;;;-0.05;69.49;99656.39;106112;1257;96584;-78
2024/02/19 06:39:46;;;;;;;11.10;5.50;;;;;;;0.04;69.65;99663.88;106182;1251;107575;-79
2024/02/19 06:42:14;;;;;;;9.50;4.90;;;;;;;0.12;69.74;99669.29;106053;1254;96565;-79
2024/02/19 06:44:42;;;;;;;11.50;7.30;;;;;;;0.20;69.81;99671.91;106429;1250;96558;-79
2024/02/19 06:47:13;;;;;;;12.20;5.60;;;;;;;0.29;69.77;99675.05;106165;1254;109891;-79
2024/02/19 06:49:40;;;;;;;10.80;5.40;;;;;;;0.37;69.49;99673.14;106240;1260;96585;-79
2024/02/19 06:52:09;;;;;;;12.70;6.60;;;;;;;0.45;69.79;99668.43;106276;1251;107688;-78
2024/02/19 06:54:36;;;;;;;10.70;6.30;;;;;;;0.47;69.48;99666.11;106258;1250;96635;-78
2024/02/19 06:57:04;;;;;;;14.10;6.70;;;;;;;0.43;69.25;99661.30;106143;1250;97925;-80
2024/02/19 06:59:33;;;;;;;14.20;8.50;;;;;;;0.36;69.30;99667.05;106392;1250;109586;-78
2024/02/19 07:02:01;;;;;;;17.90;8.20;;;;;;;0.32;69.45;99663.13;106286;1248;96578;-79
2024/02/19 07:04:36;;;;;;;11.30;6.90;;;;;;;0.32;69.69;99666.44;106699;1260;107474;-79
2024/02/19 07:07:09;;;;;;;19.10;8.20;;;;;;;0.37;69.67;99666.52;106153;1248;96658;-79
2024/02/19 07:09:38;;;;;;;12.70;7.20;;;;;;;0.41;69.61;99667.30;105875;1247;96505;-79
2024/02/19 07:12:07;;;;;;;16.30;9.10;;;;;;;0.44;69.66;99664.25;106197;1248;109434;-78
2024/02/19 07:14:35;;;;;;;11.60;6.80;;;;;;;0.50;69.66;99658.55;106395;1254;97893;-78
2024/02/19 07:17:03;;;;;;;15.10;7.90;;;;;;;0.56;69.83;99659.29;106410;1250;107104;-79
2024/02/19 07:19:31;;;;;;;15.70;8.20;;;;;;;0.65;69.70;99665.90;106329;1250;96577;-79
2024/02/19 07:21:59;;;;;;;12.10;6.80;;;;;;;0.74;70.03;99665.88;106103;1260;96607;-78
2024/02/19 07:24:29;;;;;;;14.40;8.00;;;;;;;0.80;69.83;99664.36;106342;1248;109514;-79
2024/02/19 07:26:57;;;;;;;13.90;7.80;;;;;;;0.85;70.08;99662.48;105968;1261;97906;-80
2024/02/19 07:29:25;;;;;;;14.10;7.90;;;;;;;0.91;70.01;99665.48;106119;1251;107582;-79
2024/02/19 07:31:54;;;;;;;13.60;7.40;;;;;;;0.95;70.13;99665.40;106473;1251;96517;-78
2024/02/19 07:34:22;;;;;;;11.70;6.80;;;;;;;1.00;69.94;99660.05;106080;1250;96765;-77
2024/02/19 07:36:52;;;;;;;10.80;6.40;;;;;;;1.07;70.13;99653.25;106467;1247;109987;-78
2024/02/19 07:39:20;;;;;;;12.10;6.20;;;;;;;1.16;70.32;99647.45;106362;1248;97945;-80
2024/02/19 07:41:48;;;;;;;10.70;6.30;;;;;;;1.24;70.13;99641.46;106346;1260;106731;-78
2024/02/19 07:44:16;;;;;;;12.00;6.60;;;;;;;1.31;70.01;99637.08;106472;1253;96644;-78
2024/02/19 07:46:44;;;;;;;11.20;6.10;;;;;;;1.37;70.07;99643.77;106258;1250;96641;-78
2024/02/19 07:49:12;;;;;;;12.70;6.00;;;;;;;1.42;70.16;99643.29;106299;1249;109957;-78
2024/02/19 07:51:41;;;;;;;10.20;5.90;;;;;;;1.47;70.35;99645.26;106120;1250;96645;-79
2024/02/19 07:54:09;;;;;;;11.50;6.20;;;;;;;1.52;70.34;99637.60;105973;1251;107562;-79
2024/02/19 07:56:37;;;;;;;13.70;6.40;;;;;;;1.60;69.98;99633.20;106180;1248;96498;-78
2024/02/19 07:59:04;;;;;;;12.70;6.30;;;;;;;1.69;70.23;99636.28;106063;1251;96514;-78
2024/02/19 08:01:32;;;;;;;10.30;6.10;;;;;;;1.76;70.43;99624.55;106102;1250;109796;-78
2024/02/19 08:04:02;;;;;;;12.80;6.80;;;;;;;1.85;70.21;99624.99;106421;1250;96949;-78
2024/02/19 08:06:30;;;;;;;14.00;7.30;;;;;;;1.93;70.48;99624.25;105880;1261;105970;-79
2024/02/19 08:08:59;;;;;;;12.40;6.60;;;;;;;2.00;70.42;99620.04;106272;1250;96619;-79
2024/02/19 08:11:28;;;;;;;11.20;5.80;;;;;;;2.07;70.54;99620.01;106126;1250;96571;-78
2024/02/19 08:13:56;;;;;;;9.90;5.70;;;;;;;2.12;70.49;99620.93;106314;1248;109901;-79
2024/02/19 08:16:24;;;;;;;9.80;6.00;;;;;;;2.16;70.23;99618.88;106279;1259;97812;-79
2024/02/19 08:18:55;;;;;;;12.80;5.90;;;;;;;2.22;70.32;99613.80;106277;1251;107616;-78
2024/02/19 08:21:23;;;;;;;10.50;6.10;;;;;;;2.29;70.62;99614.98;106494;1250;96606;-79
2024/02/19 08:23:53;;;;;;;11.10;5.60;;;;;;;2.37;70.30;99609.34;106291;1249;96583;-79
2024/02/19 08:26:21;;;;;;;10.00;5.30;;;;;;;2.46;70.38;99606.96;106200;1247;108754;-79
2024/02/19 08:28:48;;;;;;;14.40;6.30;;;;;;;2.55;70.42;99606.52;106273;1255;96702;-79
2024/02/19 08:31:16;;;;;;;9.40;5.00;;;;;;;2.63;70.44;99600.14;106276;1249;107281;-78
2024/02/19 08:33:44;;;;;;;14.20;6.40;;;;;;;2.73;70.54;99596.66;106070;1250;96590;-79
2024/02/19 08:36:12;;;;;;;9.50;6.00;;;;;;;2.80;70.66;99593.99;106140;1251;97525;-78
2024/02/19 08:38:44;;;;;;;14.90;7.70;;;;;;;2.84;70.38;99593.52;106410;1249;109967;-78
2024/02/19 08:54:00;;;;;;;13.90;7.20;;;;;;;3.10;70.50;99580.23;104903;1262;96734;-77
2024/02/19 08:56:30;;;;;;;14.30;8.90;;;;;;;3.14;70.66;99576.23;106048;1249;107763;-77
2024/02/19 08:59:01;;;;;;;16.10;8.30;;;;;;;3.18;70.78;99570.17;106315;1248;96583;-78
2024/02/19 09:01:29;;;;;;;14.80;8.20;;;;;;;3.23;70.56;99572.07;106246;1250;107623;-78
2024/02/19 09:04:00;;;;;;;14.70;8.50;;;;;;;3.29;70.57;99570.46;106535;1257;96523;-79
2024/02/19 09:06:31;;;;;;;11.90;6.50;;;;;;;3.36;70.80;99568.47;106224;1249;96590;-78
2024/02/19 09:09:00;;;;;;;12.70;7.10;;;;;;;3.43;70.71;99564.73;106640;1248;109928;-78
2024/02/19 09:11:35;;;;;;;12.20;6.90;;;;;;;3.50;70.66;99567.30;106532;1251;96579;-78
2024/02/19 09:14:04;;;;;;;15.00;8.30;;;;;;;3.56;70.66;99561.30;106358;1259;107568;-78
2024/02/19 09:16:33;;;;;;;13.30;7.80;;;;;;;3.62;70.72;99554.09;106306;1250;97978;-78
2024/02/19 09:19:05;;;;;;;15.70;8.20;;;;;;;3.67;70.89;99554.41;106458;1251;96982;-78
2024/02/19 09:21:34;;;;;;;13.20;7.30;;;;;;;3.72;70.63;99557.72;106253;1251;108711;-78
2024/02/19 09:24:06;;;;;;;13.50;7.70;;;;;;;3.77;70.72;99552.45;106637;1248;96583;-79
2024/02/19 09:26:40;;;;;;;13.70;7.80;;;;;;;3.82;70.68;99547.73;106288;1250;107899;-77
2024/02/19 09:29:09;;;;;;;;;;;;;;;3.88;70.93;99547.48;106208;1248;96612;-78
2024/02/19 09:31:44;;;;;;;13.00;7.60;;;;;;;3.92;70.91;99547.69;106225;1251;96581;-78
2024/02/19 09:34:11;;;;;;;13.70;7.80;;;;;;;3.97;70.95;99539.63;106085;1251;109959;-79
2024/02/19 09:36:43;;;;;;;12.90;7.50;;;;;;;4.00;70.95;99533.89;106109;1247;96593;-78
2024/02/19 09:39:12;;;;;;;18.00;8.20;;;;;;;4.02;70.78;99529.25;106233;1249;107584;-78
2024/02/19 09:41:40;;;;;;;16.80;9.40;;;;;;;4.05;70.84;99525.44;106030;1251;96635;-78
2024/02/19 09:44:08;;;;;;;16.50;8.40;;;;;;;4.09;70.77;99525.14;106062;1250;97557;-77
2024/02/19 09:46:39;;;;;;;15.80;8.80;;;;;;;4.12;70.81;99521.66;105974;1251;109110;-78
2024/02/19 09:49:10;;;;;;;19.50;10.90;;;;;;;4.16;70.84;99524.48;106205;1246;96549;-79
2024/02/19 09:51:48;;;;;;;18.80;11.00;;;;;;;4.21;70.70;99522.41;105953;1248;107583;-81
2024/02/19 09:54:16;;;;;;;18.70;10.60;;;;;;;4.25;70.89;99527.48;106295;1249;97774;-78
2024/02/19 09:56:45;;;;;;;16.00;10.10;;;;;;;4.29;70.88;99520.66;106448;1251;96436;-78
2024/02/19 09:59:15;;;;;;;16.40;9.10;;;;;;;4.33;70.81;99520.13;106456;1250;109869;-77
2024/02/19 10:01:43;;;;;;;14.50;7.90;;;;;;;4.37;70.84;99519.45;106424;1249;97409;-78
2024/02/19 10:04:14;;;;;;;13.10;7.70;;;;;;;4.41;70.98;99520.37;106577;1247;107371;-77
2024/02/19 10:06:42;;;;;;;14.00;7.90;;;;;;;4.44;70.96;99512.89;106289;1248;96580;-78
2024/02/19 10:09:14;;;;;;;12.70;7.90;;;;;;;4.47;70.86;99507.86;106363;1250;96705;-78
2024/02/19 10:11:42;;;;;;;14.40;6.90;;;;;;;4.50;70.76;99500.34;106247;1246;109641;-78
2024/02/19 10:14:10;;;;;;;14.80;8.20;;;;;;;4.55;70.76;99494.52;106304;1250;96872;-78
2024/02/19 10:16:38;;;;;;;17.10;9.40;;;;;;;4.60;70.88;99493.59;106233;1252;107631;-78
2024/02/19 10:19:07;;;;;;;14.70;9.00;;;;;;;4.67;70.78;99485.60;106124;1255;97873;-78
2024/02/19 10:21:36;;;;;;;16.30;9.10;;;;;;;4.75;71.03;99485.08;106288;1250;96578;-79
2024/02/19 10:24:05;;;;;;;17.60;8.60;;;;;;;4.84;71.09;99481.05;106232;1250;109938;-78
2024/02/19 10:26:34;;;;;;;16.40;9.50;;;;;;;4.93;71.14;99472.36;105913;1250;97906;-78
2024/02/19 10:29:02;;;;;;;17.40;9.30;;;;;;;5.02;71.07;99470.05;105864;1258;108251;-78
2024/02/19 10:31:31;;;;;;;16.00;8.30;;;;;;;5.10;70.94;99468.67;106182;1257;97498;-78
2024/02/19 10:33:59;;;;;;;15.80;8.50;;;;;;;5.16;70.95;99467.52;106221;1249;96607;-78
2024/02/19 10:36:27;;;;;;;15.70;8.60;;;;;;;5.21;70.87;99461.69;106248;1248;110584;-78
2024/02/19 10:38:55;;;;;;;13.50;8.00;;;;;;;5.26;70.97;99460.08;106179;1248;96592;-78
2024/02/19 10:41:24;;;;;;;13.60;7.90;;;;;;;5.29;70.80;99458.55;106371;1247;107074;-77
2024/02/19 10:43:52;;;;;;;14.30;8.70;;;;;;;5.31;70.80;99456.34;106000;1254;96645;-77
2024/02/19 10:46:21;;;;;;;15.80;7.80;;;;;;;5.31;70.76;99455.95;106233;1247;97900;-78
2024/02/19 10:48:53;;;;;;;14.20;7.00;;;;;;;5.30;70.67;99456.74;106194;1250;109638;-77
2024/02/19 10:51:23;;;;;;;12.80;7.90;;;;;;;5.28;70.69;99450.29;106106;1251;97417;-78
2024/02/19 10:54:02;;;;;;;11.90;6.70;;;;;;;5.27;70.80;99450.70;106222;1250;107293;-79
2024/02/19 10:56:44;;;;;;;15.80;9.00;;;;;;;5.26;70.55;99447.09;105919;1246;97537;-77
2024/02/19 10:59:13;;;;;;;14.80;8.10;;;;;;;5.22;70.63;99450.40;105844;1251;97908;-79
2024/02/19 11:04:12;;;;;;;17.10;9.20;;;;;;;5.19;70.33;99442.26;102869;1297;649430;-78
2024/02/19 11:06:50;;;;;;;15.60;8.60;;;;;;;5.11;70.44;99441.70;105037;1263;94307;-78
2024/02/19 11:09:25;;;;;;;10.40;6.50;;;;;;;5.06;70.34;99451.25;105552;1260;94320;-80
2024/02/19 11:12:01;;;;;;;16.80;8.20;;;;;;;5.01;70.28;99450.92;105260;1259;107135;-76
2024/02/19 11:14:37;;;;;;;15.00;8.80;;;;;;;4.96;70.32;99453.11;105204;1257;95521;-75
2024/02/19 11:17:15;;;;;;;15.70;8.80;;;;;;;4.88;70.33;99456.93;103912;1257;1749603;-77
2024/02/19 11:19:42;;;;;;;14.80;8.20;;;;;;;4.83;70.23;99453.33;105569;1254;94635;-78
2024/02/19 11:22:21;;;;;;;11.90;7.30;;;;;;;4.78;70.28;99455.09;105684;1257;94252;-77
2024/02/19 11:24:51;;;;;;;15.10;8.90;;;;;;;4.72;70.26;99447.45;105198;1260;107790;-77
2024/02/19 11:27:19;;;;;;;14.70;8.40;;;;;;;4.66;70.25;99447.19;105590;1256;95481;-76
2024/02/19 11:30:00;;;;;;;14.00;7.40;;;;;;;4.59;70.38;99447.42;105340;1253;107638;-78
2024/02/19 11:32:27;;;;;;;13.10;7.30;;;;;;;4.52;70.38;99446.34;105601;1253;96176;-78
2024/02/19 11:34:58;;;;;;;14.90;8.00;;;;;;;4.46;70.52;99446.94;105554;1257;95211;-79
2024/02/19 11:37:27;;;;;;;15.60;8.40;;;;;;;4.41;70.30;99445.02;105436;1253;108824;-78
2024/02/19 11:39:58;;;;;;;13.00;8.10;;;;;;;4.36;70.47;99442.27;105530;1253;95971;-78